sensor_id;sensor_type;location;lat;lon;timestamp;P1;durP1;ratioP1;P2;durP2;ratioP2
60494;SDS011;46342;49.046;11.920;2024-02-23T00:01:14;1.45;;;1.33;;
60494;SDS011;46342;49.046;11.920;2024-02-23T00:03:40;0.70;;;0.70;;
60494;SDS011;46342;49.046;11.920;2024-02-23T00:06:06;0.50;;;0.50;;
60494;SDS011;46342;49.046;11.920;2024-02-23T00:08:33;0.40;;;0.40;;
60494;SDS011;46342;49.046;11.920;2024-02-23T00:10:59;0.43;;;0.43;;
60494;SDS011;46342;49.046;11.920;2024-02-23T00:13:25;1.13;;;0.60;;
60494;SDS011;46342;49.046;11.920;2024-02-23T00:15:50;0.50;;;0.50;;
60494;SDS011;46342;49.046;11.920;2024-02-23T00:18:16;0.38;;;0.38;;
60494;SDS011;46342;49.046;11.920;2024-02-23T00:20:42;0.47;;;0.45;;
60494;SDS011;46342;49.046;11.920;2024-02-23T00:23:08;0.40;;;0.40;;
60494;SDS011;46342;49.046;11.920;2024-02-23T00:25:33;0.65;;;0.40;;
60494;SDS011;46342;49.046;11.920;2024-02-23T00:27:59;0.30;;;0.30;;
60494;SDS011;46342;49.046;11.920;2024-02-23T00:30:24;0.30;;;0.30;;
60494;SDS011;46342;49.046;11.920;2024-02-23T00:32:50;1.30;;;0.50;;
60494;SDS011;46342;49.046;11.920;2024-02-23T00:35:15;1.10;;;0.30;;
60494;SDS011;46342;49.046;11.920;2024-02-23T00:37:41;0.30;;;0.30;;
60494;SDS011;46342;49.046;11.920;2024-02-23T00:40:07;0.30;;;0.30;;
60494;SDS011;46342;49.046;11.920;2024-02-23T00:42:34;0.30;;;0.30;;
60494;SDS011;46342;49.046;11.920;2024-02-23T00:45:00;0.30;;;0.30;;
60494;SDS011;46342;49.046;11.920;2024-02-23T00:47:26;0.35;;;0.35;;
60494;SDS011;46342;49.046;11.920;2024-02-23T00:49:52;0.23;;;0.23;;
60494;SDS011;46342;49.046;11.920;2024-02-23T00:52:18;0.20;;;0.20;;
60494;SDS011;46342;49.046;11.920;2024-02-23T00:54:43;0.47;;;0.30;;
60494;SDS011;46342;49.046;11.920;2024-02-23T00:57:09;0.20;;;0.20;;
60494;SDS011;46342;49.046;11.920;2024-02-23T00:59:36;0.25;;;0.25;;
60494;SDS011;46342;49.046;11.920;2024-02-23T01:02:01;0.30;;;0.30;;
60494;SDS011;46342;49.046;11.920;2024-02-23T01:04:27;0.30;;;0.30;;
60494;SDS011;46342;49.046;11.920;2024-02-23T01:06:52;0.32;;;0.32;;
60494;SDS011;46342;49.046;11.920;2024-02-23T01:09:18;0.22;;;0.22;;
60494;SDS011;46342;49.046;11.920;2024-02-23T01:11:46;0.43;;;0.40;;
60494;SDS011;46342;49.046;11.920;2024-02-23T01:14:12;0.30;;;0.30;;
60494;SDS011;46342;49.046;11.920;2024-02-23T01:16:38;0.40;;;0.40;;
60494;SDS011;46342;49.046;11.920;2024-02-23T01:19:03;0.20;;;0.20;;
60494;SDS011;46342;49.046;11.920;2024-02-23T01:21:29;0.22;;;0.20;;
60494;SDS011;46342;49.046;11.920;2024-02-23T01:23:55;0.40;;;0.20;;
60494;SDS011;46342;49.046;11.920;2024-02-23T01:26:22;0.30;;;0.30;;
60494;SDS011;46342;49.046;11.920;2024-02-23T01:28:48;0.20;;;0.20;;
60494;SDS011;46342;49.046;11.920;2024-02-23T01:31:13;0.10;;;0.10;;
60494;SDS011;46342;49.046;11.920;2024-02-23T01:33:39;0.10;;;0.10;;
60494;SDS011;46342;49.046;11.920;2024-02-23T01:36:05;0.13;;;0.13;;
60494;SDS011;46342;49.046;11.920;2024-02-23T01:38:31;0.17;;;0.17;;
60494;SDS011;46342;49.046;11.920;2024-02-23T01:41:00;0.20;;;0.20;;
60494;SDS011;46342;49.046;11.920;2024-02-23T01:43:26;0.20;;;0.20;;
60494;SDS011;46342;49.046;11.920;2024-02-23T01:45:52;0.20;;;0.20;;
60494;SDS011;46342;49.046;11.920;2024-02-23T01:48:18;0.35;;;0.20;;
60494;SDS011;46342;49.046;11.920;2024-02-23T01:50:45;0.17;;;0.17;;
60494;SDS011;46342;49.046;11.920;2024-02-23T01:53:12;0.17;;;0.17;;
60494;SDS011;46342;49.046;11.920;2024-02-23T01:55:40;0.15;;;0.15;;
60494;SDS011;46342;49.046;11.920;2024-02-23T01:58:06;0.20;;;0.20;;
60494;SDS011;46342;49.046;11.920;2024-02-23T02:00:33;0.10;;;0.10;;
60494;SDS011;46342;49.046;11.920;2024-02-23T02:03:00;0.20;;;0.20;;
60494;SDS011;46342;49.046;11.920;2024-02-23T02:05:25;0.20;;;0.20;;
60494;SDS011;46342;49.046;11.920;2024-02-23T02:07:51;0.20;;;0.20;;
60494;SDS011;46342;49.046;11.920;2024-02-23T02:10:23;0.20;;;0.17;;
60494;SDS011;46342;49.046;11.920;2024-02-23T02:12:49;0.70;;;0.20;;
60494;SDS011;46342;49.046;11.920;2024-02-23T02:15:15;0.20;;;0.20;;
60494;SDS011;46342;49.046;11.920;2024-02-23T02:17:40;0.20;;;0.20;;
60494;SDS011;46342;49.046;11.920;2024-02-23T02:20:06;0.20;;;0.20;;
60494;SDS011;46342;49.046;11.920;2024-02-23T02:22:36;0.15;;;0.15;;
60494;SDS011;46342;49.046;11.920;2024-02-23T02:25:02;0.13;;;0.13;;
60494;SDS011;46342;49.046;11.920;2024-02-23T02:27:28;0.32;;;0.10;;
60494;SDS011;46342;49.046;11.920;2024-02-23T02:29:53;0.10;;;0.10;;
60494;SDS011;46342;49.046;11.920;2024-02-23T02:32:19;0.10;;;0.10;;
60494;SDS011;46342;49.046;11.920;2024-02-23T02:34:44;0.15;;;0.10;;
60494;SDS011;46342;49.046;11.920;2024-02-23T02:37:10;0.20;;;0.20;;
60494;SDS011;46342;49.046;11.920;2024-02-23T02:39:36;0.10;;;0.10;;
60494;SDS011;46342;49.046;11.920;2024-02-23T02:42:01;0.20;;;0.20;;
60494;SDS011;46342;49.046;11.920;2024-02-23T02:44:27;0.30;;;0.20;;
60494;SDS011;46342;49.046;11.920;2024-02-23T02:46:55;0.20;;;0.20;;
60494;SDS011;46342;49.046;11.920;2024-02-23T02:49:21;0.70;;;0.20;;
60494;SDS011;46342;49.046;11.920;2024-02-23T02:51:47;0.20;;;0.20;;
60494;SDS011;46342;49.046;11.920;2024-02-23T02:54:13;0.17;;;0.10;;
60494;SDS011;46342;49.046;11.920;2024-02-23T02:56:44;0.10;;;0.10;;
60494;SDS011;46342;49.046;11.920;2024-02-23T02:59:12;0.20;;;0.20;;
60494;SDS011;46342;49.046;11.920;2024-02-23T03:01:38;0.20;;;0.20;;
60494;SDS011;46342;49.046;11.920;2024-02-23T03:04:04;0.47;;;0.20;;
60494;SDS011;46342;49.046;11.920;2024-02-23T03:06:30;0.57;;;0.30;;
60494;SDS011;46342;49.046;11.920;2024-02-23T03:08:55;0.22;;;0.22;;
60494;SDS011;46342;49.046;11.920;2024-02-23T03:11:21;0.28;;;0.28;;
60494;SDS011;46342;49.046;11.920;2024-02-23T03:13:47;0.20;;;0.20;;
60494;SDS011;46342;49.046;11.920;2024-02-23T03:16:16;0.10;;;0.10;;
60494;SDS011;46342;49.046;11.920;2024-02-23T03:18:42;0.10;;;0.10;;
60494;SDS011;46342;49.046;11.920;2024-02-23T03:21:08;0.80;;;0.40;;
60494;SDS011;46342;49.046;11.920;2024-02-23T03:23:35;0.22;;;0.22;;
60494;SDS011;46342;49.046;11.920;2024-02-23T03:26:01;0.30;;;0.30;;
60494;SDS011;46342;49.046;11.920;2024-02-23T03:28:27;0.45;;;0.30;;
60494;SDS011;46342;49.046;11.920;2024-02-23T03:30:52;0.20;;;0.20;;
60494;SDS011;46342;49.046;11.920;2024-02-23T03:33:18;1.38;;;0.30;;
60494;SDS011;46342;49.046;11.920;2024-02-23T03:35:44;0.30;;;0.30;;
60494;SDS011;46342;49.046;11.920;2024-02-23T03:38:09;0.68;;;0.30;;
60494;SDS011;46342;49.046;11.920;2024-02-23T03:40:35;0.63;;;0.30;;
60494;SDS011;46342;49.046;11.920;2024-02-23T03:43:01;0.30;;;0.30;;
60494;SDS011;46342;49.046;11.920;2024-02-23T03:45:27;0.22;;;0.22;;
60494;SDS011;46342;49.046;11.920;2024-02-23T03:47:53;0.20;;;0.20;;
60494;SDS011;46342;49.046;11.920;2024-02-23T03:50:18;0.32;;;0.32;;
60494;SDS011;46342;49.046;11.920;2024-02-23T03:52:44;0.10;;;0.10;;
60494;SDS011;46342;49.046;11.920;2024-02-23T03:55:10;0.20;;;0.20;;
60494;SDS011;46342;49.046;11.920;2024-02-23T03:57:35;0.38;;;0.20;;
60494;SDS011;46342;49.046;11.920;2024-02-23T04:00:02;0.32;;;0.28;;
60494;SDS011;46342;49.046;11.920;2024-02-23T04:02:27;1.08;;;0.30;;
60494;SDS011;46342;49.046;11.920;2024-02-23T04:04:54;0.20;;;0.20;;
60494;SDS011;46342;49.046;11.920;2024-02-23T04:07:19;1.08;;;0.30;;
60494;SDS011;46342;49.046;11.920;2024-02-23T04:09:45;0.30;;;0.30;;
60494;SDS011;46342;49.046;11.920;2024-02-23T04:12:17;0.20;;;0.20;;
60494;SDS011;46342;49.046;11.920;2024-02-23T04:14:45;0.20;;;0.20;;
60494;SDS011;46342;49.046;11.920;2024-02-23T04:17:11;1.17;;;0.38;;
60494;SDS011;46342;49.046;11.920;2024-02-23T04:19:37;0.57;;;0.30;;
60494;SDS011;46342;49.046;11.920;2024-02-23T04:22:03;0.73;;;0.40;;
60494;SDS011;46342;49.046;11.920;2024-02-23T04:26:56;0.20;;;0.20;;
60494;SDS011;46342;49.046;11.920;2024-02-23T04:29:22;0.50;;;0.50;;
60494;SDS011;46342;49.046;11.920;2024-02-23T04:31:47;0.75;;;0.30;;
60494;SDS011;46342;49.046;11.920;2024-02-23T04:34:14;1.65;;;0.30;;
60494;SDS011;46342;49.046;11.920;2024-02-23T04:36:41;0.63;;;0.30;;
60494;SDS011;46342;49.046;11.920;2024-02-23T04:39:07;0.25;;;0.25;;
60494;SDS011;46342;49.046;11.920;2024-02-23T04:41:32;0.70;;;0.40;;
60494;SDS011;46342;49.046;11.920;2024-02-23T04:43:58;0.70;;;0.45;;
60494;SDS011;46342;49.046;11.920;2024-02-23T04:46:25;1.15;;;0.68;;
60494;SDS011;46342;49.046;11.920;2024-02-23T04:48:51;1.88;;;0.90;;
60494;SDS011;46342;49.046;11.920;2024-02-23T04:51:17;0.65;;;0.65;;
60494;SDS011;46342;49.046;11.920;2024-02-23T04:53:43;0.60;;;0.60;;
60494;SDS011;46342;49.046;11.920;2024-02-23T04:56:09;1.27;;;0.70;;
60494;SDS011;46342;49.046;11.920;2024-02-23T04:58:34;1.35;;;0.60;;
60494;SDS011;46342;49.046;11.920;2024-02-23T05:01:01;0.88;;;0.60;;
60494;SDS011;46342;49.046;11.920;2024-02-23T05:03:28;0.50;;;0.50;;
60494;SDS011;46342;49.046;11.920;2024-02-23T05:05:53;1.40;;;0.70;;
60494;SDS011;46342;49.046;11.920;2024-02-23T05:08:19;0.43;;;0.43;;
60494;SDS011;46342;49.046;11.920;2024-02-23T05:10:46;0.65;;;0.60;;
60494;SDS011;46342;49.046;11.920;2024-02-23T05:13:12;1.65;;;0.43;;
60494;SDS011;46342;49.046;11.920;2024-02-23T05:15:38;0.50;;;0.50;;
60494;SDS011;46342;49.046;11.920;2024-02-23T05:18:03;1.40;;;0.60;;
60494;SDS011;46342;49.046;11.920;2024-02-23T05:20:29;0.45;;;0.45;;
60494;SDS011;46342;49.046;11.920;2024-02-23T05:22:55;1.08;;;0.65;;
60494;SDS011;46342;49.046;11.920;2024-02-23T05:25:20;0.40;;;0.40;;
60494;SDS011;46342;49.046;11.920;2024-02-23T05:27:46;0.50;;;0.50;;
60494;SDS011;46342;49.046;11.920;2024-02-23T05:30:12;0.30;;;0.30;;
60494;SDS011;46342;49.046;11.920;2024-02-23T05:32:38;1.65;;;0.40;;
60494;SDS011;46342;49.046;11.920;2024-02-23T05:35:03;0.40;;;0.40;;
60494;SDS011;46342;49.046;11.920;2024-02-23T05:37:29;0.50;;;0.50;;
60494;SDS011;46342;49.046;11.920;2024-02-23T05:39:55;1.02;;;0.38;;
60494;SDS011;46342;49.046;11.920;2024-02-23T05:42:21;0.43;;;0.43;;
60494;SDS011;46342;49.046;11.920;2024-02-23T05:44:46;1.17;;;0.40;;
60494;SDS011;46342;49.046;11.920;2024-02-23T05:47:13;0.65;;;0.47;;
60494;SDS011;46342;49.046;11.920;2024-02-23T05:49:39;0.38;;;0.38;;
60494;SDS011;46342;49.046;11.920;2024-02-23T05:52:05;0.20;;;0.20;;
60494;SDS011;46342;49.046;11.920;2024-02-23T05:54:30;0.30;;;0.20;;
60494;SDS011;46342;49.046;11.920;2024-02-23T05:56:56;4.95;;;0.50;;
60494;SDS011;46342;49.046;11.920;2024-02-23T05:59:22;0.93;;;0.52;;
60494;SDS011;46342;49.046;11.920;2024-02-23T06:01:48;0.30;;;0.30;;
60494;SDS011;46342;49.046;11.920;2024-02-23T06:04:14;0.20;;;0.20;;
60494;SDS011;46342;49.046;11.920;2024-02-23T06:06:43;0.90;;;0.40;;
60494;SDS011;46342;49.046;11.920;2024-02-23T06:09:08;0.30;;;0.30;;
60494;SDS011;46342;49.046;11.920;2024-02-23T06:11:34;0.30;;;0.30;;
60494;SDS011;46342;49.046;11.920;2024-02-23T06:14:00;0.50;;;0.50;;
60494;SDS011;46342;49.046;11.920;2024-02-23T06:16:25;0.65;;;0.40;;
60494;SDS011;46342;49.046;11.920;2024-02-23T06:18:51;0.30;;;0.30;;
60494;SDS011;46342;49.046;11.920;2024-02-23T06:21:17;0.95;;;0.50;;
60494;SDS011;46342;49.046;11.920;2024-02-23T06:23:43;0.68;;;0.68;;
60494;SDS011;46342;49.046;11.920;2024-02-23T06:26:09;1.38;;;0.50;;
60494;SDS011;46342;49.046;11.920;2024-02-23T06:28:35;0.60;;;0.50;;
60494;SDS011;46342;49.046;11.920;2024-02-23T06:31:03;0.40;;;0.40;;
60494;SDS011;46342;49.046;11.920;2024-02-23T06:33:30;0.50;;;0.50;;
60494;SDS011;46342;49.046;11.920;2024-02-23T06:35:56;0.60;;;0.60;;
60494;SDS011;46342;49.046;11.920;2024-02-23T06:38:22;0.50;;;0.50;;
60494;SDS011;46342;49.046;11.920;2024-02-23T06:40:47;0.73;;;0.57;;
60494;SDS011;46342;49.046;11.920;2024-02-23T06:43:13;0.73;;;0.60;;
60494;SDS011;46342;49.046;11.920;2024-02-23T06:45:38;0.60;;;0.60;;
60494;SDS011;46342;49.046;11.920;2024-02-23T06:48:04;0.60;;;0.60;;
60494;SDS011;46342;49.046;11.920;2024-02-23T06:50:30;0.70;;;0.70;;
60494;SDS011;46342;49.046;11.920;2024-02-23T06:52:56;0.88;;;0.70;;
60494;SDS011;46342;49.046;11.920;2024-02-23T06:55:21;0.68;;;0.68;;
60494;SDS011;46342;49.046;11.920;2024-02-23T06:57:47;0.60;;;0.60;;
60494;SDS011;46342;49.046;11.920;2024-02-23T07:00:13;0.88;;;0.80;;
60494;SDS011;46342;49.046;11.920;2024-02-23T07:02:39;0.73;;;0.52;;
60494;SDS011;46342;49.046;11.920;2024-02-23T07:05:05;0.93;;;0.70;;
60494;SDS011;46342;49.046;11.920;2024-02-23T07:07:32;0.90;;;0.82;;
60494;SDS011;46342;49.046;11.920;2024-02-23T07:10:01;2.33;;;1.00;;
60494;SDS011;46342;49.046;11.920;2024-02-23T07:12:27;0.90;;;0.75;;
60494;SDS011;46342;49.046;11.920;2024-02-23T07:14:54;2.05;;;0.77;;
60494;SDS011;46342;49.046;11.920;2024-02-23T07:17:20;0.75;;;0.70;;
60494;SDS011;46342;49.046;11.920;2024-02-23T07:19:45;0.40;;;0.40;;
60494;SDS011;46342;49.046;11.920;2024-02-23T07:22:12;1.00;;;0.60;;
60494;SDS011;46342;49.046;11.920;2024-02-23T07:24:41;0.55;;;0.50;;
60494;SDS011;46342;49.046;11.920;2024-02-23T07:27:07;0.68;;;0.60;;
60494;SDS011;46342;49.046;11.920;2024-02-23T07:29:33;0.57;;;0.57;;
60494;SDS011;46342;49.046;11.920;2024-02-23T07:31:58;0.40;;;0.40;;
60494;SDS011;46342;49.046;11.920;2024-02-23T07:34:24;1.55;;;0.32;;
60494;SDS011;46342;49.046;11.920;2024-02-23T07:36:53;0.63;;;0.63;;
60494;SDS011;46342;49.046;11.920;2024-02-23T07:39:19;0.50;;;0.50;;
60494;SDS011;46342;49.046;11.920;2024-02-23T07:41:45;1.65;;;0.40;;
60494;SDS011;46342;49.046;11.920;2024-02-23T07:44:11;0.50;;;0.50;;
60494;SDS011;46342;49.046;11.920;2024-02-23T07:46:37;1.05;;;0.50;;
60494;SDS011;46342;49.046;11.920;2024-02-23T07:49:03;1.30;;;0.40;;
60494;SDS011;46342;49.046;11.920;2024-02-23T07:51:29;0.50;;;0.50;;
60494;SDS011;46342;49.046;11.920;2024-02-23T07:53:55;0.50;;;0.50;;
60494;SDS011;46342;49.046;11.920;2024-02-23T07:56:20;0.40;;;0.40;;
60494;SDS011;46342;49.046;11.920;2024-02-23T07:58:46;0.50;;;0.50;;
60494;SDS011;46342;49.046;11.920;2024-02-23T08:01:12;0.40;;;0.38;;
60494;SDS011;46342;49.046;11.920;2024-02-23T08:03:40;0.40;;;0.40;;
60494;SDS011;46342;49.046;11.920;2024-02-23T08:06:06;0.40;;;0.40;;
60494;SDS011;46342;49.046;11.920;2024-02-23T08:08:32;0.73;;;0.45;;
60494;SDS011;46342;49.046;11.920;2024-02-23T08:11:00;0.40;;;0.40;;
60494;SDS011;46342;49.046;11.920;2024-02-23T08:13:27;1.40;;;0.40;;
60494;SDS011;46342;49.046;11.920;2024-02-23T08:15:52;0.68;;;0.40;;
60494;SDS011;46342;49.046;11.920;2024-02-23T08:18:18;0.75;;;0.60;;
60494;SDS011;46342;49.046;11.920;2024-02-23T08:20:43;0.60;;;0.50;;
60494;SDS011;46342;49.046;11.920;2024-02-23T08:23:09;0.93;;;0.65;;
60494;SDS011;46342;49.046;11.920;2024-02-23T08:25:35;0.55;;;0.55;;
60494;SDS011;46342;49.046;11.920;2024-02-23T08:28:01;0.50;;;0.47;;
60494;SDS011;46342;49.046;11.920;2024-02-23T08:30:27;0.40;;;0.40;;
60494;SDS011;46342;49.046;11.920;2024-02-23T08:32:53;0.50;;;0.50;;
60494;SDS011;46342;49.046;11.920;2024-02-23T08:35:18;2.03;;;0.60;;
60494;SDS011;46342;49.046;11.920;2024-02-23T08:37:44;0.85;;;0.50;;
60494;SDS011;46342;49.046;11.920;2024-02-23T08:40:11;0.43;;;0.43;;
60494;SDS011;46342;49.046;11.920;2024-02-23T08:42:37;0.70;;;0.70;;
60494;SDS011;46342;49.046;11.920;2024-02-23T08:45:03;1.60;;;1.08;;
60494;SDS011;46342;49.046;11.920;2024-02-23T08:47:29;1.35;;;0.93;;
60494;SDS011;46342;49.046;11.920;2024-02-23T08:49:58;2.08;;;1.25;;
60494;SDS011;46342;49.046;11.920;2024-02-23T08:52:24;0.73;;;0.73;;
60494;SDS011;46342;49.046;11.920;2024-02-23T08:54:51;0.65;;;0.50;;
60494;SDS011;46342;49.046;11.920;2024-02-23T08:57:17;0.50;;;0.50;;
60494;SDS011;46342;49.046;11.920;2024-02-23T08:59:44;0.55;;;0.50;;
60494;SDS011;46342;49.046;11.920;2024-02-23T09:02:13;0.85;;;0.50;;
60494;SDS011;46342;49.046;11.920;2024-02-23T09:04:39;0.38;;;0.38;;
60494;SDS011;46342;49.046;11.920;2024-02-23T09:07:04;0.45;;;0.40;;
60494;SDS011;46342;49.046;11.920;2024-02-23T09:09:31;0.40;;;0.40;;
60494;SDS011;46342;49.046;11.920;2024-02-23T09:11:57;0.50;;;0.50;;
60494;SDS011;46342;49.046;11.920;2024-02-23T09:14:23;1.42;;;0.40;;
60494;SDS011;46342;49.046;11.920;2024-02-23T09:16:50;0.30;;;0.30;;
60494;SDS011;46342;49.046;11.920;2024-02-23T09:19:16;0.63;;;0.43;;
60494;SDS011;46342;49.046;11.920;2024-02-23T09:21:43;0.38;;;0.38;;
60494;SDS011;46342;49.046;11.920;2024-02-23T09:24:09;0.40;;;0.40;;
60494;SDS011;46342;49.046;11.920;2024-02-23T09:26:34;0.40;;;0.40;;
60494;SDS011;46342;49.046;11.920;2024-02-23T09:29:00;0.77;;;0.40;;
60494;SDS011;46342;49.046;11.920;2024-02-23T09:31:25;0.40;;;0.40;;
60494;SDS011;46342;49.046;11.920;2024-02-23T09:33:53;0.40;;;0.40;;
60494;SDS011;46342;49.046;11.920;2024-02-23T09:36:19;0.40;;;0.30;;
60494;SDS011;46342;49.046;11.920;2024-02-23T09:38:45;0.57;;;0.43;;
60494;SDS011;46342;49.046;11.920;2024-02-23T09:41:15;0.30;;;0.30;;
60494;SDS011;46342;49.046;11.920;2024-02-23T09:43:48;0.90;;;0.40;;
60494;SDS011;46342;49.046;11.920;2024-02-23T09:46:15;0.50;;;0.50;;
60494;SDS011;46342;49.046;11.920;2024-02-23T09:48:42;0.50;;;0.50;;
60494;SDS011;46342;49.046;11.920;2024-02-23T09:51:09;0.82;;;0.40;;
60494;SDS011;46342;49.046;11.920;2024-02-23T09:53:36;1.35;;;0.40;;
60494;SDS011;46342;49.046;11.920;2024-02-23T09:56:03;0.60;;;0.50;;
60494;SDS011;46342;49.046;11.920;2024-02-23T09:58:31;0.35;;;0.35;;
60494;SDS011;46342;49.046;11.920;2024-02-23T10:00:58;0.60;;;0.50;;
60494;SDS011;46342;49.046;11.920;2024-02-23T10:03:27;0.77;;;0.50;;
60494;SDS011;46342;49.046;11.920;2024-02-23T10:05:55;0.60;;;0.60;;
60494;SDS011;46342;49.046;11.920;2024-02-23T10:08:26;1.30;;;0.60;;
60494;SDS011;46342;49.046;11.920;2024-02-23T10:10:56;1.20;;;0.70;;
60494;SDS011;46342;49.046;11.920;2024-02-23T10:13:22;0.90;;;0.90;;
60494;SDS011;46342;49.046;11.920;2024-02-23T10:15:51;2.40;;;0.63;;
60494;SDS011;46342;49.046;11.920;2024-02-23T10:18:18;1.02;;;0.80;;
60494;SDS011;46342;49.046;11.920;2024-02-23T10:20:44;1.00;;;0.60;;
60494;SDS011;46342;49.046;11.920;2024-02-23T10:23:10;0.73;;;0.73;;
60494;SDS011;46342;49.046;11.920;2024-02-23T10:25:36;1.33;;;1.20;;
60494;SDS011;46342;49.046;11.920;2024-02-23T10:28:02;0.90;;;0.90;;
60494;SDS011;46342;49.046;11.920;2024-02-23T10:30:28;0.95;;;0.80;;
60494;SDS011;46342;49.046;11.920;2024-02-23T10:32:55;0.90;;;0.80;;
60494;SDS011;46342;49.046;11.920;2024-02-23T10:35:22;1.40;;;1.23;;
60494;SDS011;46342;49.046;11.920;2024-02-23T10:37:48;1.52;;;0.90;;
60494;SDS011;46342;49.046;11.920;2024-02-23T10:40:17;0.75;;;0.75;;
60494;SDS011;46342;49.046;11.920;2024-02-23T10:42:43;0.60;;;0.60;;
60494;SDS011;46342;49.046;11.920;2024-02-23T10:45:16;1.48;;;0.80;;
60494;SDS011;46342;49.046;11.920;2024-02-23T10:47:42;0.98;;;0.88;;
60494;SDS011;46342;49.046;11.920;2024-02-23T10:50:08;0.73;;;0.60;;
60494;SDS011;46342;49.046;11.920;2024-02-23T10:52:35;1.60;;;0.60;;
60494;SDS011;46342;49.046;11.920;2024-02-23T10:55:02;1.15;;;0.65;;
60494;SDS011;46342;49.046;11.920;2024-02-23T10:57:29;1.80;;;0.80;;
60494;SDS011;46342;49.046;11.920;2024-02-23T10:59:56;0.45;;;0.45;;
60494;SDS011;46342;49.046;11.920;2024-02-23T11:02:22;1.38;;;0.60;;
60494;SDS011;46342;49.046;11.920;2024-02-23T11:04:50;0.75;;;0.70;;
60494;SDS011;46342;49.046;11.920;2024-02-23T11:09:48;0.75;;;0.50;;
60494;SDS011;46342;49.046;11.920;2024-02-23T11:12:24;0.63;;;0.40;;
60494;SDS011;46342;49.046;11.920;2024-02-23T11:14:50;0.82;;;0.70;;
60494;SDS011;46342;49.046;11.920;2024-02-23T11:17:19;0.63;;;0.43;;
60494;SDS011;46342;49.046;11.920;2024-02-23T11:19:46;0.52;;;0.52;;
60494;SDS011;46342;49.046;11.920;2024-02-23T11:22:14;0.65;;;0.47;;
60494;SDS011;46342;49.046;11.920;2024-02-23T11:24:43;1.27;;;0.50;;
60494;SDS011;46342;49.046;11.920;2024-02-23T11:27:13;0.85;;;0.60;;
60494;SDS011;46342;49.046;11.920;2024-02-23T11:29:39;0.50;;;0.50;;
60494;SDS011;46342;49.046;11.920;2024-02-23T11:32:17;0.85;;;0.50;;
60494;SDS011;46342;49.046;11.920;2024-02-23T11:34:56;0.60;;;0.60;;
60494;SDS011;46342;49.046;11.920;2024-02-23T11:37:22;0.82;;;0.82;;
60494;SDS011;46342;49.046;11.920;2024-02-23T11:39:47;1.17;;;0.80;;
60494;SDS011;46342;49.046;11.920;2024-02-23T11:42:14;0.63;;;0.47;;
60494;SDS011;46342;49.046;11.920;2024-02-23T11:44:39;0.50;;;0.50;;
60494;SDS011;46342;49.046;11.920;2024-02-23T11:47:06;0.40;;;0.40;;
60494;SDS011;46342;49.046;11.920;2024-02-23T11:49:32;0.43;;;0.40;;
60494;SDS011;46342;49.046;11.920;2024-02-23T11:51:58;0.45;;;0.45;;
60494;SDS011;46342;49.046;11.920;2024-02-23T11:54:24;0.40;;;0.40;;
60494;SDS011;46342;49.046;11.920;2024-02-23T11:56:50;0.68;;;0.52;;
60494;SDS011;46342;49.046;11.920;2024-02-23T11:59:17;0.60;;;0.60;;
60494;SDS011;46342;49.046;11.920;2024-02-23T12:01:46;1.73;;;0.80;;
60494;SDS011;46342;49.046;11.920;2024-02-23T12:04:12;0.73;;;0.73;;
60494;SDS011;46342;49.046;11.920;2024-02-23T12:06:39;1.25;;;1.10;;
60494;SDS011;46342;49.046;11.920;2024-02-23T12:09:05;1.67;;;1.38;;
60494;SDS011;46342;49.046;11.920;2024-02-23T12:11:31;1.20;;;1.00;;
60494;SDS011;46342;49.046;11.920;2024-02-23T12:13:57;0.82;;;0.82;;
60494;SDS011;46342;49.046;11.920;2024-02-23T12:16:22;0.70;;;0.70;;
60494;SDS011;46342;49.046;11.920;2024-02-23T12:18:54;0.90;;;0.90;;
60494;SDS011;46342;49.046;11.920;2024-02-23T12:21:20;2.15;;;1.05;;
60494;SDS011;46342;49.046;11.920;2024-02-23T12:23:47;0.70;;;0.70;;
60494;SDS011;46342;49.046;11.920;2024-02-23T12:26:15;0.60;;;0.60;;
60494;SDS011;46342;49.046;11.920;2024-02-23T12:31:08;0.68;;;0.60;;
60494;SDS011;46342;49.046;11.920;2024-02-23T12:33:35;0.70;;;0.60;;
60494;SDS011;46342;49.046;11.920;2024-02-23T12:36:02;0.60;;;0.60;;
60494;SDS011;46342;49.046;11.920;2024-02-23T12:38:29;2.77;;;0.60;;
60494;SDS011;46342;49.046;11.920;2024-02-23T12:40:55;1.45;;;0.70;;
60494;SDS011;46342;49.046;11.920;2024-02-23T12:43:21;0.73;;;0.73;;
60494;SDS011;46342;49.046;11.920;2024-02-23T12:45:49;0.85;;;0.80;;
60494;SDS011;46342;49.046;11.920;2024-02-23T12:48:19;0.60;;;0.60;;
60494;SDS011;46342;49.046;11.920;2024-02-23T12:50:46;0.75;;;0.70;;
60494;SDS011;46342;49.046;11.920;2024-02-23T12:58:33;0.73;;;0.70;;
60494;SDS011;46342;49.046;11.920;2024-02-23T13:01:00;0.60;;;0.60;;
60494;SDS011;46342;49.046;11.920;2024-02-23T13:03:26;0.70;;;0.70;;
60494;SDS011;46342;49.046;11.920;2024-02-23T13:05:54;0.70;;;0.70;;
60494;SDS011;46342;49.046;11.920;2024-02-23T13:08:24;0.50;;;0.50;;
60494;SDS011;46342;49.046;11.920;2024-02-23T13:10:51;1.10;;;0.60;;
60494;SDS011;46342;49.046;11.920;2024-02-23T13:13:18;0.77;;;0.65;;
60494;SDS011;46342;49.046;11.920;2024-02-23T13:15:47;0.73;;;0.60;;
60494;SDS011;46342;49.046;11.920;2024-02-23T13:18:14;0.65;;;0.57;;
60494;SDS011;46342;49.046;11.920;2024-02-23T13:20:40;0.50;;;0.50;;
60494;SDS011;46342;49.046;11.920;2024-02-23T13:23:06;2.25;;;0.50;;
60494;SDS011;46342;49.046;11.920;2024-02-23T13:25:33;2.03;;;1.63;;
60494;SDS011;46342;49.046;11.920;2024-02-23T13:28:00;1.33;;;1.00;;
60494;SDS011;46342;49.046;11.920;2024-02-23T13:30:26;2.33;;;1.10;;
60494;SDS011;46342;49.046;11.920;2024-02-23T13:32:52;1.65;;;0.90;;
60494;SDS011;46342;49.046;11.920;2024-02-23T13:35:18;0.80;;;0.65;;
60494;SDS011;46342;49.046;11.920;2024-02-23T13:37:43;1.15;;;0.73;;
60494;SDS011;46342;49.046;11.920;2024-02-23T13:40:09;1.27;;;0.60;;
60494;SDS011;46342;49.046;11.920;2024-02-23T13:42:36;1.30;;;0.68;;
60494;SDS011;46342;49.046;11.920;2024-02-23T13:47:30;0.93;;;0.77;;
60494;SDS011;46342;49.046;11.920;2024-02-23T13:49:55;0.70;;;0.70;;
60494;SDS011;46342;49.046;11.920;2024-02-23T13:52:21;0.70;;;0.57;;
60494;SDS011;46342;49.046;11.920;2024-02-23T13:54:47;2.08;;;0.70;;
60494;SDS011;46342;49.046;11.920;2024-02-23T13:57:12;0.52;;;0.52;;
60494;SDS011;46342;49.046;11.920;2024-02-23T13:59:38;0.40;;;0.40;;
60494;SDS011;46342;49.046;11.920;2024-02-23T14:02:03;0.80;;;0.60;;
60494;SDS011;46342;49.046;11.920;2024-02-23T14:04:29;0.60;;;0.60;;
60494;SDS011;46342;49.046;11.920;2024-02-23T14:06:55;0.60;;;0.60;;
60494;SDS011;46342;49.046;11.920;2024-02-23T14:09:21;0.70;;;0.70;;
60494;SDS011;46342;49.046;11.920;2024-02-23T14:11:46;0.93;;;0.85;;
60494;SDS011;46342;49.046;11.920;2024-02-23T14:14:12;1.50;;;0.88;;
60494;SDS011;46342;49.046;11.920;2024-02-23T14:16:38;1.88;;;1.02;;
60494;SDS011;46342;49.046;11.920;2024-02-23T14:19:04;1.15;;;1.02;;
60494;SDS011;46342;49.046;11.920;2024-02-23T14:21:30;1.35;;;0.90;;
60494;SDS011;46342;49.046;11.920;2024-02-23T14:23:56;3.08;;;1.30;;
60494;SDS011;46342;49.046;11.920;2024-02-23T14:26:21;1.20;;;1.00;;
60494;SDS011;46342;49.046;11.920;2024-02-23T14:28:47;1.67;;;1.10;;
60494;SDS011;46342;49.046;11.920;2024-02-23T14:31:14;2.35;;;1.05;;
60494;SDS011;46342;49.046;11.920;2024-02-23T14:33:40;0.98;;;0.77;;
60494;SDS011;46342;49.046;11.920;2024-02-23T14:36:06;0.98;;;0.63;;
60494;SDS011;46342;49.046;11.920;2024-02-23T14:38:31;0.80;;;0.80;;
60494;SDS011;46342;49.046;11.920;2024-02-23T14:40:57;0.90;;;0.80;;
60494;SDS011;46342;49.046;11.920;2024-02-23T14:43:23;1.25;;;0.73;;